Time;durP1;ratioP1;P1;durP2;ratioP2;P2;SDS_P1;SDS_P2;PMS_P1;PMS_P2;Temp;Humidity;BMP_temperature;BMP_pressure;BME280_temperature;BME280_humidity;BME280_pressure;Samples;Min_cycle;Max_cycle;Signal;HPM_P1;HPM_P2
2023/10/24 00:01:07;;;;;;;17.80;10.30;;;10.20;99.90;;;;;;5101263;28;20017;-74
2023/10/24 00:03:33;;;;;;;21.58;9.88;;;10.20;99.90;;;;;;5102219;28;20052;-75
2023/10/24 00:05:58;;;;;;;20.50;10.45;;;10.20;99.90;;;;;;5102285;28;20096;-75
2023/10/24 00:08:24;;;;;;;20.30;10.57;;;10.20;99.90;;;;;;5101860;28;20479;-76
2023/10/24 00:11:05;;;;;;;20.70;9.93;;;10.20;99.90;;;;;;5101211;28;20047;-77
2023/10/24 00:13:31;;;;;;;17.80;10.50;;;10.20;99.90;;;;;;5101177;28;20035;-76
2023/10/24 00:15:58;;;;;;;27.17;11.43;;;10.20;99.90;;;;;;5101652;28;20063;-77
2023/10/24 00:18:25;;;;;;;20.77;10.98;;;10.20;99.90;;;;;;5099976;28;20090;-76
2023/10/24 00:20:51;;;;;;;21.50;11.68;;;10.20;99.90;;;;;;5102363;28;20054;-75
2023/10/24 00:23:16;;;;;;;22.35;11.32;;;10.20;99.90;;;;;;5101286;28;20020;-75
2023/10/24 00:25:42;;;;;;;19.45;10.43;;;10.30;99.90;;;;;;5100687;28;20048;-76
2023/10/24 00:28:08;;;;;;;19.38;10.98;;;10.30;99.90;;;;;;5100490;28;20036;-77
2023/10/24 00:30:34;;;;;;;21.88;11.13;;;10.10;99.90;;;;;;5101798;28;20054;-76
2023/10/24 00:32:59;;;;;;;18.48;10.77;;;10.20;99.90;;;;;;5101948;28;20063;-75
2023/10/24 00:35:25;;;;;;;20.70;11.63;;;10.20;99.90;;;;;;5100886;28;20024;-76
2023/10/24 00:37:51;;;;;;;21.63;11.77;;;10.30;99.90;;;;;;5101242;28;20036;-77
2023/10/24 00:40:18;;;;;;;22.80;12.50;;;10.20;99.90;;;;;;5101251;28;20030;-73
2023/10/24 00:42:45;;;;;;;20.15;11.32;;;10.20;99.90;;;;;;5100576;28;20081;-75
2023/10/24 00:45:10;;;;;;;24.75;12.13;;;10.30;99.90;;;;;;5100389;28;20020;-75
2023/10/24 00:47:37;;;;;;;21.98;11.93;;;10.30;99.90;;;;;;5100289;28;20027;-75
2023/10/24 00:50:04;;;;;;;21.52;11.88;;;10.30;99.90;;;;;;5100720;28;20042;-76
2023/10/24 00:52:30;;;;;;;24.13;12.43;;;10.30;99.90;;;;;;5102247;28;20075;-72
2023/10/24 00:54:56;;;;;;;24.63;13.05;;;10.30;99.90;;;;;;5099967;28;20082;-76
2023/10/24 00:57:23;;;;;;;25.13;12.60;;;10.30;99.90;;;;;;5100742;28;20020;-76
2023/10/24 00:59:50;;;;;;;26.83;12.60;;;10.40;99.90;;;;;;5099767;28;20032;-75
2023/10/24 01:02:16;;;;;;;23.52;13.13;;;10.40;99.90;;;;;;5101544;28;20039;-77
2023/10/24 01:04:43;;;;;;;25.27;13.35;;;10.30;99.90;;;;;;5100387;28;20665;-75
2023/10/24 01:07:08;;;;;;;22.02;12.85;;;10.40;99.90;;;;;;5100473;28;20070;-74
2023/10/24 01:09:34;;;;;;;26.17;13.63;;;10.40;99.90;;;;;;5101364;28;20040;-75
2023/10/24 01:12:00;;;;;;;25.02;12.68;;;10.40;99.90;;;;;;5100390;28;20033;-76
2023/10/24 01:14:25;;;;;;;20.98;12.98;;;10.40;99.90;;;;;;5101419;28;20031;-74
2023/10/24 01:16:51;;;;;;;23.40;13.45;;;10.40;99.90;;;;;;5101652;28;20024;-77
2023/10/24 01:19:17;;;;;;;24.40;13.63;;;10.40;99.90;;;;;;5101645;28;20020;-74
2023/10/24 01:21:47;;;;;;;22.75;13.30;;;10.40;99.90;;;;;;5099780;28;20092;-75
2023/10/24 01:24:14;;;;;;;25.73;14.15;;;10.50;99.90;;;;;;5099846;28;20020;-74
2023/10/24 01:26:41;;;;;;;24.17;13.80;;;10.50;99.90;;;;;;5101156;28;20043;-78
2023/10/24 01:29:10;;;;;;;26.25;13.55;;;10.50;99.90;;;;;;5101135;28;20047;-76
2023/10/24 01:31:36;;;;;;;26.85;13.07;;;10.50;99.90;;;;;;5101027;28;20024;-75
2023/10/24 01:34:03;;;;;;;24.85;13.48;;;10.50;99.90;;;;;;5101260;28;20043;-75
2023/10/24 01:36:29;;;;;;;25.50;14.05;;;10.50;99.90;;;;;;5100234;28;20035;-77
2023/10/24 01:38:55;;;;;;;23.67;13.80;;;10.60;99.90;;;;;;5101387;28;20034;-75
2023/10/24 01:41:21;;;;;;;26.10;14.15;;;10.50;99.90;;;;;;5099882;28;20142;-75
2023/10/24 01:43:47;;;;;;;25.05;13.60;;;10.60;99.90;;;;;;5101188;28;20016;-75
2023/10/24 01:46:13;;;;;;;31.90;14.02;;;10.60;99.90;;;;;;5099808;28;20091;-75
2023/10/24 01:48:39;;;;;;;24.50;14.02;;;10.60;99.90;;;;;;5101451;28;20028;-77
2023/10/24 01:51:04;;;;;;;24.08;13.57;;;10.60;99.90;;;;;;5103778;28;20112;-78
2023/10/24 01:53:30;;;;;;;24.80;13.50;;;10.60;99.90;;;;;;5104045;28;20096;-78
2023/10/24 01:55:55;;;;;;;28.58;15.00;;;10.60;99.90;;;;;;5104922;28;20481;-76
2023/10/24 01:58:21;;;;;;;24.85;13.85;;;10.60;99.90;;;;;;5105078;28;20063;-77
2023/10/24 02:01:02;;;;;;;26.63;13.95;;;10.60;99.90;;;;;;5060023;28;20106;-78
2023/10/24 02:03:27;;;;;;;30.00;14.73;;;10.60;99.90;;;;;;5104434;28;20032;-79
2023/10/24 02:05:53;;;;;;;25.38;14.45;;;10.60;99.90;;;;;;5105256;28;20376;-80
2023/10/24 02:08:18;;;;;;;31.45;14.65;;;10.70;99.90;;;;;;5103786;28;20042;-79
2023/10/24 02:10:44;;;;;;;30.10;14.77;;;10.60;99.90;;;;;;5102498;28;20052;-78
2023/10/24 02:13:10;;;;;;;30.98;15.30;;;10.60;99.90;;;;;;5104336;28;20016;-78
2023/10/24 02:15:37;;;;;;;24.77;14.90;;;10.60;99.90;;;;;;5104381;28;20027;-79
2023/10/24 02:18:03;;;;;;;28.25;15.45;;;10.60;99.90;;;;;;5103093;28;20043;-80
2023/10/24 02:20:29;;;;;;;27.33;16.00;;;10.70;99.90;;;;;;5103644;28;20031;-78
2023/10/24 02:22:54;;;;;;;24.80;14.02;;;10.70;99.90;;;;;;5103036;28;20024;-77
2023/10/24 02:25:20;;;;;;;25.50;14.18;;;10.70;99.90;;;;;;5103371;28;20534;-79
2023/10/24 02:27:45;;;;;;;24.65;14.60;;;10.60;99.90;;;;;;5104526;28;20024;-80
2023/10/24 02:30:11;;;;;;;28.65;14.48;;;10.70;99.90;;;;;;5103020;28;20024;-78
2023/10/24 02:32:37;;;;;;;27.77;15.20;;;10.70;99.90;;;;;;5103407;28;20027;-80
2023/10/24 02:35:03;;;;;;;26.73;15.52;;;10.70;99.90;;;;;;5103518;28;20065;-82
2023/10/24 02:37:29;;;;;;;31.85;16.42;;;10.70;99.90;;;;;;5103285;28;20036;-80
2023/10/24 02:39:55;;;;;;;30.48;15.98;;;10.70;99.90;;;;;;5103544;28;20052;-81
2023/10/24 02:42:21;;;;;;;32.53;15.65;;;10.70;99.90;;;;;;5103290;28;20028;-78
2023/10/24 02:44:50;;;;;;;29.08;15.48;;;10.70;99.90;;;;;;5103006;28;20033;-80
2023/10/24 02:47:15;;;;;;;32.75;16.08;;;10.70;99.90;;;;;;5102800;28;20028;-81
2023/10/24 02:49:41;;;;;;;31.58;16.40;;;10.80;99.90;;;;;;5103425;28;20024;-80
2023/10/24 02:52:07;;;;;;;33.88;16.98;;;10.70;99.90;;;;;;5103135;28;20031;-81
2023/10/24 02:54:33;;;;;;;30.02;16.30;;;10.70;99.90;;;;;;5104277;28;20028;-81
2023/10/24 02:56:59;;;;;;;34.80;16.45;;;10.70;99.90;;;;;;5103281;28;20054;-81
2023/10/24 02:59:24;;;;;;;28.35;16.25;;;10.70;99.90;;;;;;5103787;28;20462;-80
2023/10/24 03:01:50;;;;;;;36.30;17.17;;;10.70;99.90;;;;;;5103386;28;20024;-80
2023/10/24 03:04:15;;;;;;;32.17;16.25;;;10.70;99.90;;;;;;5103095;28;20020;-79
2023/10/24 03:06:41;;;;;;;29.05;16.02;;;10.70;99.90;;;;;;5102972;28;20055;-81
2023/10/24 03:09:07;;;;;;;35.35;16.98;;;10.70;99.90;;;;;;5103196;28;20420;-81
2023/10/24 03:11:33;;;;;;;34.95;18.17;;;10.70;99.90;;;;;;5102204;28;20457;-81
2023/10/24 03:13:58;;;;;;;33.30;16.90;;;10.70;99.90;;;;;;5103174;28;20028;-77
2023/10/24 03:16:24;;;;;;;29.80;17.20;;;10.70;99.90;;;;;;5104527;28;20039;-80
2023/10/24 03:18:50;;;;;;;34.40;18.15;;;10.70;99.90;;;;;;5104077;28;20114;-80
2023/10/24 03:21:15;;;;;;;37.05;16.70;;;10.70;99.90;;;;;;5103941;28;20077;-80
2023/10/24 03:23:41;;;;;;;31.80;17.33;;;10.60;99.90;;;;;;5103757;28;20024;-80
2023/10/24 03:26:08;;;;;;;32.15;17.73;;;10.70;99.90;;;;;;5102571;28;20068;-82
2023/10/24 03:28:33;;;;;;;31.73;17.13;;;10.70;99.90;;;;;;5104470;28;20079;-80
2023/10/24 03:31:06;;;;;;;35.30;17.80;;;10.70;99.90;;;;;;5102979;28;20031;-82
2023/10/24 03:33:33;;;;;;;31.23;17.40;;;10.70;99.90;;;;;;5102301;28;20134;-80
2023/10/24 03:35:58;;;;;;;32.45;17.20;;;10.70;99.90;;;;;;5104082;28;20016;-81
2023/10/24 03:38:25;;;;;;;34.15;17.52;;;10.60;99.90;;;;;;5101409;28;20028;-82
2023/10/24 03:40:52;;;;;;;36.92;17.33;;;10.70;99.90;;;;;;5102413;28;20024;-81
2023/10/24 03:43:18;;;;;;;31.27;17.33;;;10.70;99.90;;;;;;5102665;28;20031;-82
2023/10/24 03:45:44;;;;;;;32.53;17.50;;;10.80;99.90;;;;;;5102543;28;20063;-81
2023/10/24 03:48:10;;;;;;;36.65;17.20;;;10.70;99.90;;;;;;5102411;28;20024;-82
2023/10/24 03:50:39;;;;;;;34.70;17.63;;;10.70;99.90;;;;;;5102014;28;20119;-82
2023/10/24 03:53:05;;;;;;;33.75;18.38;;;10.70;99.90;;;;;;5102092;28;20036;-83
2023/10/24 03:55:32;;;;;;;36.97;17.98;;;10.70;99.90;;;;;;5101971;28;20040;-82
2023/10/24 03:57:57;;;;;;;31.83;17.00;;;10.70;99.90;;;;;;5102352;28;20110;-83
2023/10/24 04:00:23;;;;;;;33.03;17.80;;;10.70;99.90;;;;;;5102372;28;20027;-80
2023/10/24 04:02:56;;;;;;;35.63;17.38;;;10.70;99.90;;;;;;5101546;28;20102;-82
2023/10/24 04:05:22;;;;;;;35.72;17.73;;;10.70;99.90;;;;;;5102772;28;20031;-82
2023/10/24 04:07:48;;;;;;;34.67;17.77;;;10.70;99.90;;;;;;5101394;28;20023;-84
2023/10/24 04:10:15;;;;;;;38.05;18.40;;;10.70;99.90;;;;;;5102568;28;20107;-84
2023/10/24 04:12:40;;;;;;;35.40;18.77;;;10.70;99.90;;;;;;5102897;28;20051;-80
2023/10/24 04:15:07;;;;;;;34.80;18.17;;;10.80;99.90;;;;;;5103390;28;20027;-83
2023/10/24 04:17:33;;;;;;;43.67;19.00;;;10.80;99.90;;;;;;5101953;28;20024;-84
2023/10/24 04:19:59;;;;;;;34.50;18.83;;;10.80;99.90;;;;;;5102140;28;20222;-80
2023/10/24 04:22:25;;;;;;;33.28;18.05;;;10.80;99.90;;;;;;5101717;28;20540;-82
2023/10/24 04:24:53;;;;;;;37.97;17.73;;;10.80;99.90;;;;;;5102090;28;20123;-82
2023/10/24 04:27:19;;;;;;;37.05;18.48;;;10.90;99.90;;;;;;5103509;28;20079;-83
2023/10/24 04:29:46;;;;;;;39.22;19.02;;;10.80;99.90;;;;;;5101955;28;20044;-83
2023/10/24 04:32:12;;;;;;;38.95;20.10;;;10.80;99.90;;;;;;5101870;28;20028;-82
2023/10/24 04:34:38;;;;;;;39.17;18.77;;;10.80;99.90;;;;;;5101866;28;20039;-83
2023/10/24 04:37:07;;;;;;;34.92;19.27;;;10.80;99.90;;;;;;5101015;28;20012;-84
2023/10/24 04:39:32;;;;;;;33.78;17.80;;;10.80;99.90;;;;;;5101517;28;20016;-79
2023/10/24 04:41:58;;;;;;;36.75;18.30;;;10.70;99.90;;;;;;5101347;28;20511;-83
2023/10/24 04:44:29;;;;;;;38.63;19.45;;;10.80;99.90;;;;;;5100558;28;20131;-82
2023/10/24 04:46:54;;;;;;;35.92;18.85;;;10.80;99.90;;;;;;5100866;28;20040;-81
2023/10/24 04:49:20;;;;;;;36.60;19.02;;;10.90;99.90;;;;;;5102964;28;20034;-85
2023/10/24 04:51:46;;;;;;;33.72;18.17;;;10.90;99.90;;;;;;5100558;28;20028;-84
2023/10/24 04:54:12;;;;;;;38.72;18.63;;;10.90;99.90;;;;;;5101197;28;20049;-81
2023/10/24 04:56:38;;;;;;;36.63;18.30;;;10.90;99.90;;;;;;5100501;28;20055;-82
2023/10/24 04:59:03;;;;;;;37.92;18.23;;;10.90;99.90;;;;;;5101090;28;20123;-82
2023/10/24 05:01:37;;;;;;;35.45;17.80;;;10.90;99.90;;;;;;5101224;28;20020;-82
2023/10/24 05:04:04;;;;;;;39.30;18.95;;;10.90;99.90;;;;;;5101102;28;20028;-83
2023/10/24 05:06:30;;;;;;;35.03;18.65;;;10.90;99.90;;;;;;5100705;28;20403;-84
2023/10/24 05:08:56;;;;;;;42.33;18.30;;;10.90;99.90;;;;;;5102227;28;20042;-84
2023/10/24 05:11:21;;;;;;;37.78;19.05;;;10.90;99.90;;;;;;5099867;28;20028;-83
2023/10/24 05:13:47;;;;;;;35.42;18.73;;;10.90;99.90;;;;;;5099872;28;20032;-79
2023/10/24 05:16:13;;;;;;;38.70;19.80;;;11.00;99.90;;;;;;5101625;28;20024;-78
2023/10/24 05:18:38;;;;;;;33.40;18.20;;;11.00;99.90;;;;;;5100830;28;20028;-80
2023/10/24 05:21:04;;;;;;;40.88;18.58;;;10.90;99.90;;;;;;5100279;28;20088;-81
2023/10/24 05:23:29;;;;;;;35.38;17.50;;;11.00;99.90;;;;;;5100891;28;20020;-82
2023/10/24 05:25:55;;;;;;;34.13;18.50;;;10.90;99.90;;;;;;5100095;28;20091;-81
2023/10/24 05:28:21;;;;;;;39.58;17.42;;;11.00;99.90;;;;;;5100205;28;20020;-79
2023/10/24 05:30:46;;;;;;;33.40;17.17;;;11.00;99.90;;;;;;5099796;28;20059;-78
2023/10/24 05:33:12;;;;;;;39.33;18.90;;;11.00;99.90;;;;;;5099787;28;20107;-77
2023/10/24 05:35:38;;;;;;;36.78;18.80;;;11.00;99.90;;;;;;5097634;28;20024;-77
2023/10/24 05:38:03;;;;;;;38.03;19.15;;;10.90;99.90;;;;;;5098263;28;20028;-79
2023/10/24 05:40:30;;;;;;;39.17;18.55;;;10.90;99.90;;;;;;5100896;28;20412;-78
2023/10/24 05:42:56;;;;;;;35.28;17.40;;;11.00;99.90;;;;;;5101181;28;20115;-79
2023/10/24 05:45:23;;;;;;;35.70;16.58;;;11.00;99.90;;;;;;5099229;28;20455;-81
2023/10/24 05:47:49;;;;;;;36.65;18.75;;;11.00;99.90;;;;;;5099464;28;20039;-81
2023/10/24 05:50:17;;;;;;;34.38;17.17;;;11.00;99.90;;;;;;5101050;28;20012;-77
2023/10/24 05:52:42;;;;;;;33.83;18.48;;;11.00;99.90;;;;;;5099235;28;20097;-80
2023/10/24 05:55:08;;;;;;;33.72;18.10;;;11.00;99.90;;;;;;5099315;28;20036;-78
2023/10/24 05:57:35;;;;;;;35.63;18.70;;;11.00;99.90;;;;;;5099781;28;20024;-77
2023/10/24 06:00:01;;;;;;;35.97;17.35;;;11.00;99.90;;;;;;5099519;28;20107;-79
2023/10/24 06:02:27;;;;;;;34.45;17.17;;;11.00;99.90;;;;;;5101372;28;20039;-79
2023/10/24 06:04:53;;;;;;;38.97;17.50;;;11.10;99.90;;;;;;5100351;28;20024;-79
2023/10/24 06:07:18;;;;;;;35.05;17.75;;;11.00;99.90;;;;;;5100761;28;21190;-78
2023/10/24 06:09:44;;;;;;;36.45;17.08;;;11.10;99.90;;;;;;5097953;28;20024;-77
2023/10/24 06:12:09;;;;;;;33.63;17.33;;;11.00;99.90;;;;;;5099398;28;20040;-78
2023/10/24 06:14:35;;;;;;;35.83;17.52;;;11.00;99.90;;;;;;5099317;28;20016;-79
2023/10/24 06:17:01;;;;;;;29.50;16.13;;;11.00;99.90;;;;;;5101058;28;20084;-78
2023/10/24 06:19:26;;;;;;;31.70;17.10;;;11.00;99.90;;;;;;5100879;28;20024;-78
2023/10/24 06:21:53;;;;;;;33.70;16.95;;;11.10;99.90;;;;;;5100989;28;20027;-78
2023/10/24 06:24:19;;;;;;;35.67;17.05;;;11.00;99.90;;;;;;5098745;28;20051;-78
2023/10/24 06:26:45;;;;;;;31.83;18.08;;;11.00;99.90;;;;;;5096412;28;20566;-79
2023/10/24 06:29:10;;;;;;;34.92;17.90;;;11.10;99.90;;;;;;5099292;28;20046;-79
2023/10/24 06:31:36;;;;;;;34.80;17.90;;;11.00;99.90;;;;;;5097853;28;20048;-78
2023/10/24 06:34:03;;;;;;;33.72;17.80;;;11.10;99.90;;;;;;5097365;28;20036;-77
2023/10/24 06:36:29;;;;;;;33.58;17.73;;;11.10;99.90;;;;;;5103578;28;20046;-78
2023/10/24 06:38:54;;;;;;;35.40;17.95;;;11.10;99.90;;;;;;5104471;28;20024;-78
2023/10/24 06:41:20;;;;;;;33.55;18.70;;;11.10;99.90;;;;;;5102280;28;20032;-78
2023/10/24 06:43:46;;;;;;;34.65;19.10;;;11.20;99.90;;;;;;5104636;28;20705;-76
2023/10/24 06:46:11;;;;;;;39.65;19.52;;;11.10;99.90;;;;;;5106192;28;20039;-78
2023/10/24 06:48:37;;;;;;;35.40;19.23;;;11.00;99.90;;;;;;5105787;28;20041;-78
2023/10/24 06:51:04;;;;;;;37.95;20.02;;;11.20;99.90;;;;;;5105773;28;20027;-79
2023/10/24 06:53:29;;;;;;;39.80;19.83;;;11.10;99.90;;;;;;5105728;28;20044;-79
2023/10/24 06:56:02;;;;;;;41.30;20.20;;;11.10;99.90;;;;;;5104617;28;20040;-77
2023/10/24 06:58:28;;;;;;;38.22;19.73;;;11.20;99.90;;;;;;5105874;28;20024;-77
2023/10/24 07:00:54;;;;;;;35.67;18.95;;;11.20;99.90;;;;;;5106019;28;20028;-76
2023/10/24 07:03:21;;;;;;;36.30;17.85;;;11.20;99.90;;;;;;5105836;28;20020;-77
2023/10/24 07:05:53;;;;;;;35.25;19.63;;;11.30;99.90;;;;;;5104884;28;20032;-78
2023/10/24 07:08:19;;;;;;;31.02;15.55;;;11.20;99.90;;;;;;5102707;28;20066;-76
2023/10/24 07:10:46;;;;;;;37.88;19.77;;;11.20;99.90;;;;;;5105872;28;20024;-77
2023/10/24 07:13:12;;;;;;;38.15;20.38;;;11.20;99.90;;;;;;5104244;28;20023;-76
2023/10/24 07:15:39;;;;;;;39.55;21.00;;;11.20;99.90;;;;;;5104918;28;20035;-74
2023/10/24 07:18:06;;;;;;;38.75;20.80;;;11.20;99.90;;;;;;5103874;28;20495;-75
2023/10/24 07:20:38;;;;;;;39.65;20.33;;;11.30;99.90;;;;;;5106302;28;20023;-76
2023/10/24 07:23:04;;;;;;;43.75;20.63;;;11.30;99.90;;;;;;5103675;28;20040;-76
2023/10/24 07:25:31;;;;;;;41.85;20.33;;;11.30;99.90;;;;;;5106575;28;20037;-76
2023/10/24 07:27:57;;;;;;;37.60;19.73;;;11.30;99.90;;;;;;5104628;28;20020;-76
2023/10/24 07:30:24;;;;;;;37.05;18.70;;;11.30;99.90;;;;;;5104796;28;20080;-76
2023/10/24 07:32:49;;;;;;;41.17;19.95;;;11.30;99.90;;;;;;5101943;28;20027;-76
2023/10/24 07:35:15;;;;;;;42.60;20.92;;;11.30;99.90;;;;;;5102399;28;20088;-76
2023/10/24 07:37:41;;;;;;;37.55;20.13;;;11.30;99.90;;;;;;5103699;28;20024;-76
2023/10/24 07:40:07;;;;;;;37.40;20.90;;;11.30;99.90;;;;;;5103857;28;20024;-77
2023/10/24 07:42:33;;;;;;;42.00;20.90;;;11.30;99.90;;;;;;5104995;28;20028;-76
2023/10/24 07:44:59;;;;;;;39.47;19.80;;;11.30;99.90;;;;;;5103530;28;20054;-77
2023/10/24 07:47:26;;;;;;;36.13;21.00;;;11.30;99.90;;;;;;5102770;28;20059;-77
2023/10/24 07:49:52;;;;;;;43.00;19.85;;;11.30;99.90;;;;;;5102893;28;20550;-78
2023/10/24 07:52:18;;;;;;;33.55;19.17;;;11.40;99.90;;;;;;5101750;28;20457;-75
2023/10/24 07:54:44;;;;;;;32.33;19.08;;;11.40;99.90;;;;;;5102380;28;20027;-75
2023/10/24 07:57:09;;;;;;;44.80;21.80;;;11.40;99.90;;;;;;5102181;28;20034;-77
2023/10/24 07:59:35;;;;;;;38.67;20.95;;;11.40;99.90;;;;;;5102228;28;20016;-76
2023/10/24 08:02:01;;;;;;;48.65;21.20;;;11.40;99.90;;;;;;5102220;28;20024;-76
2023/10/24 08:04:27;;;;;;;38.95;20.38;;;11.40;99.90;;;;;;5101098;28;20024;-76
2023/10/24 08:06:53;;;;;;;36.03;20.70;;;11.50;99.90;;;;;;5101368;28;20031;-77
2023/10/24 08:09:18;;;;;;;37.90;20.70;;;11.50;99.90;;;;;;5100124;28;20095;-76
2023/10/24 08:11:44;;;;;;;39.60;19.98;;;11.60;99.90;;;;;;5100721;28;20114;-77
2023/10/24 08:14:09;;;;;;;36.20;19.20;;;11.60;99.90;;;;;;5102073;28;20032;-77
2023/10/24 08:16:35;;;;;;;34.63;18.88;;;11.60;99.90;;;;;;5101549;28;20024;-77
2023/10/24 08:19:02;;;;;;;40.35;19.80;;;11.60;99.90;;;;;;5102136;28;20028;-75
2023/10/24 08:21:27;;;;;;;34.08;18.83;;;11.60;99.90;;;;;;5101550;28;20111;-76
2023/10/24 08:23:54;;;;;;;29.70;19.55;;;11.70;99.90;;;;;;5101940;28;20240;-76
2023/10/24 08:26:19;;;;;;;37.88;19.77;;;11.70;99.90;;;;;;5100198;28;20770;-76
2023/10/24 08:28:45;;;;;;;34.25;19.70;;;11.70;99.90;;;;;;5100967;28;20024;-78
2023/10/24 08:31:11;;;;;;;32.53;19.55;;;11.70;99.90;;;;;;5101669;28;20070;-76
2023/10/24 08:33:36;;;;;;;40.72;20.00;;;11.80;99.90;;;;;;5100077;28;20039;-76
2023/10/24 08:36:02;;;;;;;33.75;20.15;;;11.70;99.90;;;;;;5100587;28;20024;-79
2023/10/24 08:38:28;;;;;;;36.67;20.55;;;11.80;99.90;;;;;;5102495;28;20032;-75
2023/10/24 08:40:53;;;;;;;40.17;20.45;;;11.80;99.90;;;;;;5100440;28;20043;-75
2023/10/24 08:43:20;;;;;;;38.45;20.95;;;11.80;99.90;;;;;;5102399;28;20046;-76
2023/10/24 08:45:50;;;;;;;38.50;21.92;;;11.90;99.90;;;;;;5100790;28;20088;-76
2023/10/24 08:48:16;;;;;;;38.08;20.83;;;11.90;99.90;;;;;;5101792;28;20027;-80
2023/10/24 08:50:43;;;;;;;41.45;22.42;;;11.90;99.90;;;;;;5100796;28;20024;-76
2023/10/24 08:53:11;;;;;;;38.35;19.95;;;11.90;99.90;;;;;;5100284;28;20038;-77
2023/10/24 08:55:38;;;;;;;38.13;21.08;;;12.00;99.90;;;;;;5101334;28;20059;-77
2023/10/24 08:58:06;;;;;;;36.60;20.88;;;11.90;99.90;;;;;;5099469;28;20016;-76
2023/10/24 09:00:32;;;;;;;35.47;20.30;;;12.00;99.90;;;;;;5100557;28;20020;-77
2023/10/24 09:03:00;;;;;;;38.20;20.40;;;12.00;99.90;;;;;;5100555;28;20032;-76
2023/10/24 09:05:28;;;;;;;35.20;18.65;;;12.00;99.90;;;;;;5101805;28;20042;-77
2023/10/24 09:07:56;;;;;;;36.55;18.30;;;12.00;99.90;;;;;;5100206;28;20501;-77
2023/10/24 09:10:22;;;;;;;37.13;19.40;;;12.00;99.90;;;;;;5102214;28;20092;-78
2023/10/24 09:12:53;;;;;;;34.33;19.00;;;12.10;99.90;;;;;;5101013;28;20024;-78
2023/10/24 09:15:18;;;;;;;36.22;19.35;;;12.10;99.90;;;;;;5101522;28;20016;-78
2023/10/24 09:17:44;;;;;;;33.60;17.92;;;12.10;99.90;;;;;;5101976;28;20028;-78
2023/10/24 09:20:10;;;;;;;29.33;17.13;;;12.10;99.90;;;;;;5101182;28;20024;-75
2023/10/24 09:22:35;;;;;;;31.98;17.88;;;12.10;99.90;;;;;;5100848;28;20038;-77
2023/10/24 09:25:03;;;;;;;30.40;17.85;;;12.10;99.90;;;;;;5101154;28;20016;-75
2023/10/24 09:27:29;;;;;;;30.42;17.20;;;12.10;99.90;;;;;;5101041;28;20032;-79
2023/10/24 09:29:54;;;;;;;31.45;17.20;;;12.10;99.90;;;;;;5101041;28;20051;-78
2023/10/24 09:32:20;;;;;;;32.15;18.35;;;12.00;99.90;;;;;;5101683;28;20035;-77
2023/10/24 09:34:47;;;;;;;34.40;18.20;;;12.00;99.90;;;;;;5100382;28;20507;-76
2023/10/24 09:37:13;;;;;;;35.67;17.88;;;12.10;99.90;;;;;;5099723;28;20088;-77
2023/10/24 09:39:55;;;;;;;34.17;18.08;;;12.10;99.90;;;;;;5101447;28;20100;-78
2023/10/24 09:42:26;;;;;;;30.90;16.88;;;12.10;99.90;;;;;;5101240;28;20074;-78
2023/10/24 09:44:56;;;;;;;32.15;16.40;;;12.10;99.90;;;;;;5101763;28;20024;-78
2023/10/24 09:47:24;;;;;;;33.85;17.73;;;12.20;99.90;;;;;;5099987;28;20144;-76
2023/10/24 09:49:51;;;;;;;27.55;17.17;;;12.20;99.90;;;;;;5102044;28;20020;-77
2023/10/24 09:52:19;;;;;;;30.85;16.88;;;12.20;99.90;;;;;;5102151;28;20031;-78
2023/10/24 09:54:47;;;;;;;32.88;16.85;;;12.20;99.90;;;;;;5098310;28;20028;-78
2023/10/24 09:57:18;;;;;;;30.17;16.45;;;12.20;99.90;;;;;;5101724;28;20069;-79
2023/10/24 09:59:52;;;;;;;30.77;17.85;;;12.20;99.90;;;;;;5099029;28;20020;-77
2023/10/24 10:02:20;;;;;;;30.50;17.10;;;12.20;99.90;;;;;;5099632;28;20028;-77
2023/10/24 10:04:48;;;;;;;26.02;16.38;;;12.20;99.90;;;;;;5101120;28;20073;-76
2023/10/24 10:07:16;;;;;;;26.88;15.27;;;12.30;99.90;;;;;;5100317;28;20040;-77
2023/10/24 10:09:46;;;;;;;27.50;15.77;;;12.30;99.90;;;;;;5103372;28;20012;-75
2023/10/24 10:12:19;;;;;;;28.15;15.48;;;12.30;99.90;;;;;;5104754;28;20751;-79
2023/10/24 10:15:03;;;;;;;34.75;17.15;;;12.40;99.90;;;;;;5105664;28;20024;-77
2023/10/24 10:18:16;;;;;;;24.63;14.90;;;12.40;99.90;;;;;;5105792;28;20054;-78
2023/10/24 10:21:01;;;;;;;27.27;14.73;;;12.40;99.90;;;;;;5086860;28;20038;-78
2023/10/24 10:23:59;;;;;;;27.63;14.43;;;12.50;99.90;;;;;;5103678;28;20046;-80
2023/10/24 10:26:59;;;;;;;24.80;14.65;;;12.60;99.90;;;;;;5104508;28;20036;-79
2023/10/24 10:29:50;;;;;;;26.33;13.38;;;12.60;99.90;;;;;;5103947;28;20036;-76
2023/10/24 10:32:33;;;;;;;23.77;13.27;;;12.70;99.90;;;;;;5103551;28;20241;-79
2023/10/24 10:34:59;;;;;;;26.20;13.23;;;12.80;99.90;;;;;;5103872;28;20035;-78
2023/10/24 10:37:30;;;;;;;20.63;11.63;;;12.90;99.90;;;;;;5104450;28;20047;-73
2023/10/24 10:40:19;;;;;;;21.48;12.02;;;12.90;99.90;;;;;;5104826;28;20112;-72
2023/10/24 10:42:49;;;;;;;22.70;12.43;;;13.00;99.90;;;;;;5098626;28;20032;-79
2023/10/24 10:45:32;;;;;;;23.52;11.95;;;13.00;99.90;;;;;;5103239;28;20032;-79
2023/10/24 10:48:04;;;;;;;22.40;12.35;;;13.10;99.90;;;;;;5102109;28;20050;-78
2023/10/24 10:50:32;;;;;;;25.27;11.85;;;13.10;99.90;;;;;;5103962;28;20028;-77
2023/10/24 10:53:22;;;;;;;19.52;12.05;;;13.10;99.90;;;;;;5105155;28;20024;-82
2023/10/24 10:56:10;;;;;;;19.45;11.18;;;13.20;99.90;;;;;;5103568;28;20101;-77
2023/10/24 10:58:57;;;;;;;20.88;11.05;;;13.20;99.90;;;;;;5103497;28;20075;-78
2023/10/24 11:01:44;;;;;;;17.55;10.65;;;13.20;99.90;;;;;;5104270;28;20527;-80
2023/10/24 11:04:14;;;;;;;21.08;10.98;;;13.30;99.90;;;;;;5102029;28;20047;-81
2023/10/24 11:06:53;;;;;;;15.18;10.10;;;13.30;99.90;;;;;;5103836;28;20032;-79
2023/10/24 11:09:28;;;;;;;16.65;10.60;;;13.30;99.90;;;;;;5102199;28;20032;-81
2023/10/24 11:12:19;;;;;;;16.67;10.60;;;13.40;99.90;;;;;;5104641;28;20113;-77
2023/10/24 11:15:05;;;;;;;18.30;10.43;;;13.40;99.90;;;;;;5103951;28;20031;-75
2023/10/24 11:17:31;;;;;;;20.98;10.77;;;13.50;99.90;;;;;;5097909;28;20028;-82
2023/10/24 11:20:02;;;;;;;18.67;10.68;;;13.50;99.90;;;;;;5102633;28;20046;-79
2023/10/24 11:22:31;;;;;;;16.73;9.98;;;13.50;99.90;;;;;;5102370;28;20057;-78
2023/10/24 11:24:56;;;;;;;18.30;9.98;;;13.50;99.90;;;;;;5102908;28;20118;-76
2023/10/24 11:27:22;;;;;;;17.23;9.65;;;13.50;99.90;;;;;;5103276;28;20082;-77
2023/10/24 11:29:52;;;;;;;18.33;10.80;;;13.60;99.90;;;;;;5103896;28;20507;-77
2023/10/24 11:32:27;;;;;;;17.38;9.50;;;13.60;99.90;;;;;;5104060;28;20024;-81
2023/10/24 11:34:54;;;;;;;15.25;9.35;;;13.60;99.90;;;;;;5102521;28;20026;-79
2023/10/24 11:37:20;;;;;;;16.20;9.05;;;13.50;99.90;;;;;;5101504;28;20024;-78
2023/10/24 11:39:45;;;;;;;14.98;9.48;;;13.50;99.90;;;;;;5104277;28;20024;-78
2023/10/24 11:42:11;;;;;;;14.80;8.95;;;13.50;99.90;;;;;;5103437;28;20117;-77
2023/10/24 11:44:37;;;;;;;14.35;10.13;;;13.40;99.90;;;;;;5103685;28;20035;-77
2023/10/24 11:47:04;;;;;;;12.65;8.50;;;13.50;99.90;;;;;;5102547;28;20059;-69
2023/10/24 11:49:36;;;;;;;11.40;8.65;;;13.50;99.90;;;;;;5102493;28;20042;-70
2023/10/24 11:52:04;;;;;;;12.25;7.90;;;13.50;99.90;;;;;;5103287;28;20032;-72
2023/10/24 11:54:30;;;;;;;12.02;7.38;;;13.50;99.90;;;;;;5102081;28;20016;-71
2023/10/24 11:56:56;;;;;;;13.55;8.27;;;13.50;99.90;;;;;;5103230;28;20060;-73
2023/10/24 11:59:22;;;;;;;14.20;9.40;;;13.50;99.90;;;;;;5101926;28;20051;-71
2023/10/24 12:01:49;;;;;;;12.98;8.23;;;13.50;99.90;;;;;;5103386;28;20024;-71
2023/10/24 12:04:15;;;;;;;11.63;8.40;;;13.50;99.90;;;;;;5102125;28;20028;-75
2023/10/24 12:06:41;;;;;;;13.07;9.55;;;13.50;99.90;;;;;;5102762;28;20024;-74
2023/10/24 12:09:07;;;;;;;16.63;10.50;;;13.60;99.90;;;;;;5103189;28;20488;-74
2023/10/24 12:11:33;;;;;;;12.82;9.13;;;13.50;99.90;;;;;;5101613;28;20020;-75
2023/10/24 12:14:00;;;;;;;11.10;8.25;;;13.50;99.90;;;;;;5101970;28;20028;-72
2023/10/24 12:16:29;;;;;;;13.38;9.75;;;13.50;99.90;;;;;;5102904;28;20030;-78
2023/10/24 12:18:55;;;;;;;12.43;9.07;;;13.60;99.90;;;;;;5102718;28;20020;-77
2023/10/24 12:21:21;;;;;;;12.20;7.68;;;13.60;99.90;;;;;;5102975;28;20022;-75
2023/10/24 12:23:46;;;;;;;16.35;9.52;;;13.60;99.90;;;;;;5102993;28;20406;-78
2023/10/24 12:26:12;;;;;;;14.02;9.43;;;13.50;99.90;;;;;;5101330;28;20039;-75
2023/10/24 12:28:42;;;;;;;12.60;8.48;;;13.50;99.90;;;;;;5103103;28;20024;-76
2023/10/24 12:31:08;;;;;;;14.15;9.35;;;13.50;99.90;;;;;;5102575;28;20028;-76